Time;durP1;ratioP1;P1;durP2;ratioP2;P2;SDS_P1;SDS_P2;PMS_P1;PMS_P2;Temp;Humidity;BMP_temperature;BMP_pressure;BME280_temperature;BME280_humidity;BME280_pressure;Samples;Min_cycle;Max_cycle;Signal;HPM_P1;HPM_P2
2023/08/21 00:02:17;;;;;;;9.77;4.63;;;19.70;99.90;;;;;;5028347;28;20568;-79
2023/08/21 00:04:44;;;;;;;9.05;4.35;;;19.60;99.90;;;;;;5032232;28;20283;-79
2023/08/21 00:07:11;;;;;;;7.03;4.60;;;19.40;99.90;;;;;;5027359;28;20231;-79
2023/08/21 00:09:38;;;;;;;6.97;4.30;;;19.40;99.90;;;;;;5028425;28;20223;-78
2023/08/21 00:12:05;;;;;;;8.07;4.38;;;19.40;99.90;;;;;;5035392;28;20201;-79
2023/08/21 00:14:32;;;;;;;8.05;4.85;;;19.40;99.90;;;;;;5038636;28;20280;-78
2023/08/21 00:17:00;;;;;;;5.25;3.92;;;19.40;99.90;;;;;;5026207;28;20208;-78
2023/08/21 00:19:27;;;;;;;4.55;3.78;;;19.20;99.90;;;;;;5025696;28;20251;-79
2023/08/21 00:21:54;;;;;;;6.75;4.20;;;19.40;99.90;;;;;;5035088;28;20223;-79
2023/08/21 00:24:20;;;;;;;8.43;5.50;;;19.50;99.90;;;;;;5035785;28;20208;-79
2023/08/21 00:26:47;;;;;;;8.18;4.95;;;19.30;99.90;;;;;;5025680;28;20204;-79
2023/08/21 00:29:14;;;;;;;6.60;5.10;;;19.10;99.90;;;;;;5032980;28;20264;-79
2023/08/21 00:31:41;;;;;;;6.75;4.35;;;19.00;99.90;;;;;;5025142;28;20207;-79
2023/08/21 00:34:09;;;;;;;6.28;4.05;;;19.00;99.90;;;;;;5038906;28;20579;-79
2023/08/21 00:36:36;;;;;;;4.70;3.95;;;19.20;99.90;;;;;;5029996;28;20200;-79
2023/08/21 00:39:03;;;;;;;7.30;3.88;;;19.10;99.90;;;;;;5030357;28;20298;-80
2023/08/21 00:41:29;;;;;;;6.90;3.90;;;19.00;99.90;;;;;;5024905;28;20227;-79
2023/08/21 00:43:56;;;;;;;6.47;4.10;;;19.10;99.90;;;;;;5025694;28;20913;-79
2023/08/21 00:46:23;;;;;;;4.97;3.72;;;19.20;99.90;;;;;;5025541;28;20219;-79
2023/08/21 00:48:50;;;;;;;6.05;3.90;;;19.10;99.90;;;;;;5026874;28;20292;-79
2023/08/21 00:51:18;;;;;;;7.70;4.15;;;19.00;99.90;;;;;;5025030;28;20272;-78
2023/08/21 00:53:45;;;;;;;4.43;3.65;;;18.80;99.90;;;;;;5025385;28;20761;-79
2023/08/21 00:56:12;;;;;;;7.40;3.85;;;18.80;99.90;;;;;;5033847;28;20657;-78
2023/08/21 00:58:39;;;;;;;8.98;4.40;;;18.80;99.90;;;;;;5024444;28;20228;-79
2023/08/21 01:01:06;;;;;;;7.30;4.45;;;18.80;99.90;;;;;;5026723;28;20319;-79
2023/08/21 01:03:33;;;;;;;6.97;4.10;;;18.80;99.90;;;;;;5037638;28;20214;-78
2023/08/21 01:06:00;;;;;;;7.03;4.47;;;18.90;99.90;;;;;;5020368;28;20215;-80
2023/08/21 01:08:36;;;;;;;6.50;4.03;;;18.90;99.90;;;;;;5024802;28;20215;-80
2023/08/21 01:11:10;;;;;;;7.28;4.35;;;19.00;99.90;;;;;;5024902;28;20210;-79
2023/08/21 01:13:49;;;;;;;9.77;3.83;;;18.90;99.90;;;;;;5016338;28;20283;-79
2023/08/21 01:16:17;;;;;;;6.28;4.30;;;18.80;99.90;;;;;;5024215;28;20589;-79
2023/08/21 01:18:45;;;;;;;5.65;3.85;;;18.80;99.90;;;;;;5024978;28;20216;-79
2023/08/21 01:21:13;;;;;;;6.32;3.95;;;18.70;99.90;;;;;;5024412;28;20288;-79
2023/08/21 01:23:43;;;;;;;4.97;3.50;;;18.80;99.90;;;;;;5025177;28;20204;-79
2023/08/21 01:26:10;;;;;;;6.03;3.90;;;18.70;99.90;;;;;;5024721;28;20208;-79
2023/08/21 01:28:37;;;;;;;5.88;3.95;;;18.70;99.90;;;;;;5024145;28;20650;-79
2023/08/21 01:31:12;;;;;;;6.30;4.00;;;18.70;99.90;;;;;;5025543;28;20395;-78
2023/08/21 01:33:45;;;;;;;5.93;4.40;;;18.60;99.90;;;;;;5018213;28;20207;-79
2023/08/21 01:36:12;;;;;;;8.48;4.05;;;18.50;99.90;;;;;;5024997;28;20208;-79
2023/08/21 01:38:42;;;;;;;9.65;5.10;;;18.40;99.90;;;;;;5016757;28;20243;-78
2023/08/21 01:41:09;;;;;;;6.13;4.53;;;18.20;99.90;;;;;;5022430;28;20679;-78
2023/08/21 01:43:35;;;;;;;7.50;4.55;;;18.10;99.90;;;;;;5024302;28;20585;-79
2023/08/21 01:46:03;;;;;;;6.55;3.95;;;18.10;99.90;;;;;;5025596;28;20291;-81
2023/08/21 01:48:30;;;;;;;5.63;4.18;;;18.00;99.90;;;;;;5024821;28;20223;-80
2023/08/21 01:50:56;;;;;;;4.20;3.67;;;18.10;99.90;;;;;;5021900;28;20688;-79
2023/08/21 01:53:23;;;;;;;8.23;3.95;;;18.00;99.90;;;;;;5022383;28;20692;-78
2023/08/21 01:55:51;;;;;;;5.53;3.80;;;18.10;99.90;;;;;;5028201;28;20204;-81
2023/08/21 01:58:18;;;;;;;6.03;3.88;;;18.10;99.90;;;;;;5021269;28;20207;-78
2023/08/21 02:00:47;;;;;;;4.97;3.35;;;18.10;99.90;;;;;;5013084;28;20204;-78
2023/08/21 02:03:14;;;;;;;7.57;3.65;;;18.20;99.90;;;;;;5021447;28;20215;-78
2023/08/21 02:05:41;;;;;;;5.85;3.78;;;18.00;99.90;;;;;;5035323;28;20876;-78
2023/08/21 02:08:11;;;;;;;7.78;3.70;;;18.00;99.90;;;;;;5101493;22;20254;-78
2023/08/21 02:10:37;;;;;;;5.63;3.85;;;18.10;99.90;;;;;;5047677;28;20293;-78
2023/08/21 02:13:06;;;;;;;7.32;3.42;;;18.30;99.90;;;;;;5045421;28;20199;-78
2023/08/21 02:15:32;;;;;;;4.97;3.58;;;18.30;99.90;;;;;;5042627;28;20206;-79
2023/08/21 02:17:59;;;;;;;6.88;3.38;;;18.10;99.90;;;;;;5042198;28;20204;-79
2023/08/21 02:20:26;;;;;;;7.03;3.50;;;18.20;99.90;;;;;;5041116;28;20227;-78
2023/08/21 02:22:53;;;;;;;7.85;3.70;;;18.30;99.90;;;;;;5042393;28;20226;-77
2023/08/21 02:25:19;;;;;;;4.75;3.30;;;18.40;99.90;;;;;;5043770;28;20208;-78
2023/08/21 02:27:46;;;;;;;4.03;3.25;;;18.30;99.90;;;;;;5043363;28;20207;-79
2023/08/21 02:30:14;;;;;;;6.65;3.50;;;18.00;99.90;;;;;;5051909;28;20223;-80
2023/08/21 02:32:41;;;;;;;8.07;3.05;;;18.10;99.90;;;;;;5047847;28;20223;-79
2023/08/21 02:35:10;;;;;;;6.88;3.15;;;17.80;99.90;;;;;;5044232;28;20222;-79
2023/08/21 02:37:38;;;;;;;5.05;3.30;;;17.60;99.90;;;;;;5047342;28;20210;-78
2023/08/21 02:40:09;;;;;;;5.85;3.67;;;17.50;99.90;;;;;;5042766;28;20223;-78
2023/08/21 02:42:36;;;;;;;10.05;5.82;;;17.40;99.90;;;;;;5042829;28;20223;-79
2023/08/21 02:45:03;;;;;;;6.82;4.63;;;17.50;99.90;;;;;;5042045;28;20203;-79
2023/08/21 02:47:31;;;;;;;8.20;4.43;;;17.40;99.90;;;;;;5047308;28;20279;-79
2023/08/21 02:49:59;;;;;;;4.95;3.10;;;17.60;99.90;;;;;;5042934;28;20227;-78
2023/08/21 02:52:25;;;;;;;3.05;2.75;;;17.50;99.90;;;;;;5044212;28;20195;-79
2023/08/21 02:54:52;;;;;;;5.97;3.05;;;17.50;99.90;;;;;;5055955;28;20207;-79
2023/08/21 02:57:19;;;;;;;5.75;3.15;;;17.30;99.90;;;;;;5043328;28;20226;-79
2023/08/21 02:59:46;;;;;;;5.70;3.10;;;17.50;99.90;;;;;;5042856;28;20223;-79
2023/08/21 03:02:13;;;;;;;4.03;2.92;;;17.40;99.90;;;;;;5042978;28;20226;-79
2023/08/21 03:04:41;;;;;;;5.40;3.03;;;17.60;99.90;;;;;;5045520;28;20227;-79
2023/08/21 03:07:08;;;;;;;6.28;3.00;;;17.70;99.90;;;;;;5033913;28;20206;-78
2023/08/21 03:09:34;;;;;;;9.75;3.58;;;17.70;99.90;;;;;;5039818;28;20220;-81
2023/08/21 03:12:01;;;;;;;8.48;3.95;;;17.80;99.90;;;;;;5034055;28;20581;-78
2023/08/21 03:14:28;;;;;;;6.45;3.45;;;17.80;99.90;;;;;;5044396;28;20203;-79
2023/08/21 03:16:55;;;;;;;6.40;3.70;;;17.80;99.90;;;;;;5055027;28;20207;-78
2023/08/21 03:19:22;;;;;;;6.38;3.70;;;17.90;99.90;;;;;;5054476;28;20223;-78
2023/08/21 03:21:51;;;;;;;5.47;3.80;;;17.80;99.90;;;;;;5037012;28;20253;-79
2023/08/21 03:24:18;;;;;;;4.57;3.35;;;17.70;99.90;;;;;;5055058;28;20214;-78
2023/08/21 03:26:45;;;;;;;7.35;3.45;;;17.60;99.90;;;;;;5056702;28;20207;-79
2023/08/21 03:29:11;;;;;;;4.32;3.28;;;17.60;99.90;;;;;;5040469;28;20219;-79
2023/08/21 03:31:38;;;;;;;8.13;3.92;;;17.60;99.90;;;;;;5045003;28;20207;-79
2023/08/21 03:34:05;;;;;;;7.97;4.30;;;17.70;99.90;;;;;;5052094;28;20209;-78
2023/08/21 03:36:32;;;;;;;7.28;4.47;;;17.70;99.90;;;;;;5064976;28;20209;-78
2023/08/21 03:39:00;;;;;;;6.18;3.83;;;17.80;99.90;;;;;;5048213;28;20261;-79
2023/08/21 03:41:27;;;;;;;5.63;3.53;;;17.70;99.90;;;;;;5051634;28;20195;-78
2023/08/21 03:43:54;;;;;;;6.57;3.70;;;17.60;99.90;;;;;;5053427;28;20203;-78
2023/08/21 03:46:21;;;;;;;4.57;3.55;;;17.50;99.90;;;;;;5055189;28;20195;-79
2023/08/21 03:48:48;;;;;;;6.90;3.50;;;17.50;99.90;;;;;;5053179;28;20697;-79
2023/08/21 03:51:15;;;;;;;5.78;3.90;;;17.50;99.90;;;;;;5052726;28;20661;-79
2023/08/21 03:53:42;;;;;;;6.70;3.25;;;17.30;99.90;;;;;;5062700;28;20209;-79
2023/08/21 03:56:10;;;;;;;4.00;3.60;;;17.30;99.90;;;;;;5050033;28;20290;-78
2023/08/21 03:58:37;;;;;;;6.38;3.60;;;17.30;99.90;;;;;;5050996;28;20612;-79
2023/08/21 04:01:04;;;;;;;4.40;3.55;;;17.30;99.90;;;;;;5043554;28;20196;-79
2023/08/21 04:03:30;;;;;;;6.10;3.47;;;17.30;99.90;;;;;;5050300;28;20215;-78
2023/08/21 04:05:58;;;;;;;4.20;3.58;;;17.30;99.90;;;;;;5058660;28;20282;-79
2023/08/21 04:08:25;;;;;;;8.45;3.80;;;17.20;99.90;;;;;;5041176;28;20294;-79
2023/08/21 04:10:53;;;;;;;8.00;3.85;;;17.20;99.90;;;;;;5040071;28;20283;-78
2023/08/21 04:13:21;;;;;;;7.40;3.88;;;17.10;99.90;;;;;;5039829;28;20676;-79
2023/08/21 04:15:50;;;;;;;4.78;3.65;;;17.20;99.90;;;;;;5039660;28;20206;-79
2023/08/21 04:18:17;;;;;;;6.00;3.88;;;17.20;99.90;;;;;;5037678;28;20215;-79
2023/08/21 04:20:44;;;;;;;8.00;3.58;;;17.30;99.90;;;;;;5037895;28;20230;-79
2023/08/21 04:23:11;;;;;;;6.93;3.88;;;17.30;99.90;;;;;;5040926;28;20239;-78
2023/08/21 04:25:37;;;;;;;4.68;3.70;;;17.20;99.90;;;;;;5042117;28;20223;-79
2023/08/21 04:28:05;;;;;;;4.95;3.70;;;17.30;99.90;;;;;;5042719;28;20278;-78
2023/08/21 04:30:33;;;;;;;6.75;3.63;;;17.20;99.90;;;;;;5042247;28;20246;-79
2023/08/21 04:33:00;;;;;;;7.28;3.85;;;17.10;99.90;;;;;;5041800;28;20202;-79
2023/08/21 04:35:27;;;;;;;5.03;3.67;;;17.10;99.90;;;;;;5043060;28;20204;-79
2023/08/21 04:37:54;;;;;;;6.88;3.80;;;17.20;99.90;;;;;;5041323;28;20210;-78
2023/08/21 04:40:22;;;;;;;4.45;3.78;;;17.10;99.90;;;;;;5041867;28;20728;-79
2023/08/21 04:42:48;;;;;;;7.07;3.70;;;17.10;99.90;;;;;;5041639;28;20282;-78
2023/08/21 04:45:15;;;;;;;5.28;3.40;;;17.40;99.90;;;;;;5041437;28;20282;-79
2023/08/21 04:47:43;;;;;;;8.95;4.03;;;17.50;99.90;;;;;;5042958;28;20267;-79
2023/08/21 04:50:10;;;;;;;5.85;3.35;;;17.60;99.90;;;;;;5041539;28;20227;-79
2023/08/21 04:52:37;;;;;;;5.43;3.40;;;17.80;99.90;;;;;;5042458;28;20652;-78
2023/08/21 04:55:05;;;;;;;6.30;3.40;;;18.00;99.90;;;;;;5041644;28;20200;-79
2023/08/21 04:57:32;;;;;;;5.70;3.17;;;17.80;99.90;;;;;;5041709;28;20200;-79
2023/08/21 04:59:59;;;;;;;4.50;2.95;;;17.80;99.90;;;;;;5033520;28;20657;-78
2023/08/21 05:02:27;;;;;;;5.45;3.05;;;17.70;99.90;;;;;;5041908;28;20220;-79
2023/08/21 05:04:55;;;;;;;5.45;3.10;;;17.80;99.90;;;;;;5041432;28;20460;-79
2023/08/21 05:07:22;;;;;;;7.05;3.08;;;18.00;99.90;;;;;;5040997;28;20231;-79
2023/08/21 05:09:48;;;;;;;5.60;3.50;;;18.00;99.90;;;;;;5040493;28;20239;-78
2023/08/21 05:12:15;;;;;;;7.40;2.88;;;18.00;99.90;;;;;;5040899;28;20203;-78
2023/08/21 05:14:42;;;;;;;4.07;2.90;;;18.00;99.90;;;;;;5039060;28;20199;-78
2023/08/21 05:17:09;;;;;;;7.03;3.63;;;18.10;99.90;;;;;;5039956;28;20206;-79
2023/08/21 05:19:35;;;;;;;4.82;2.83;;;18.20;99.90;;;;;;5041196;28;20239;-79
2023/08/21 05:22:04;;;;;;;4.78;2.72;;;18.30;99.90;;;;;;5039862;28;20206;-79
2023/08/21 05:24:32;;;;;;;5.70;2.42;;;18.20;99.90;;;;;;5040645;28;20200;-79
2023/08/21 05:26:59;;;;;;;5.60;2.88;;;18.30;99.90;;;;;;5035442;28;20216;-79
2023/08/21 05:29:26;;;;;;;4.63;2.47;;;18.40;99.90;;;;;;5038390;28;20254;-79
2023/08/21 05:31:53;;;;;;;4.82;2.78;;;18.50;99.90;;;;;;5039438;28;20290;-79
2023/08/21 05:34:19;;;;;;;4.55;2.60;;;18.60;99.90;;;;;;5039899;28;20210;-78
2023/08/21 05:36:46;;;;;;;5.60;3.30;;;18.50;99.90;;;;;;5038879;28;20211;-79
2023/08/21 05:39:14;;;;;;;4.57;2.90;;;18.40;99.90;;;;;;5038562;28;20219;-79
2023/08/21 05:41:41;;;;;;;7.60;3.10;;;18.50;99.90;;;;;;5041036;28;20271;-79
2023/08/21 05:44:08;;;;;;;2.90;2.65;;;18.70;99.90;;;;;;5040629;28;20219;-78
2023/08/21 05:46:35;;;;;;;7.70;2.75;;;18.50;99.90;;;;;;5037672;28;20209;-79
2023/08/21 05:49:02;;;;;;;7.50;3.00;;;18.40;99.90;;;;;;5038546;28;20219;-79
2023/08/21 05:51:28;;;;;;;4.70;2.65;;;18.40;99.90;;;;;;5040150;28;20211;-78
2023/08/21 05:53:55;;;;;;;3.58;2.60;;;18.50;99.90;;;;;;5039298;28;20210;-78
2023/08/21 05:56:24;;;;;;;4.50;2.63;;;18.50;99.90;;;;;;5039810;28;20222;-79
2023/08/21 05:58:51;;;;;;;5.85;3.00;;;18.50;99.90;;;;;;5039605;28;20224;-78
2023/08/21 06:01:18;;;;;;;3.83;2.60;;;18.60;99.90;;;;;;5047040;28;20535;-78
2023/08/21 06:03:45;;;;;;;4.78;2.78;;;18.50;99.90;;;;;;5038053;28;20692;-78
2023/08/21 06:06:11;;;;;;;6.50;2.60;;;18.70;99.90;;;;;;5038876;28;20269;-79
2023/08/21 06:08:38;;;;;;;4.57;3.03;;;18.90;99.90;;;;;;5040255;28;20799;-78
2023/08/21 06:11:05;;;;;;;4.97;2.80;;;19.00;99.90;;;;;;5030355;28;20204;-79
2023/08/21 06:13:33;;;;;;;6.10;2.70;;;19.10;99.90;;;;;;5039836;28;20196;-79
2023/08/21 06:16:00;;;;;;;4.35;2.65;;;19.00;99.90;;;;;;5056345;28;20211;-78
2023/08/21 06:18:27;;;;;;;3.97;2.53;;;19.00;99.90;;;;;;5037719;28;20601;-78
2023/08/21 06:20:55;;;;;;;5.53;3.03;;;19.10;99.90;;;;;;5057947;28;20206;-79
2023/08/21 06:23:22;;;;;;;7.43;3.00;;;19.10;99.90;;;;;;5058166;28;20310;-79
2023/08/21 06:25:49;;;;;;;3.00;2.67;;;19.00;99.90;;;;;;5047816;28;20218;-80
2023/08/21 06:28:16;;;;;;;5.15;3.13;;;19.10;99.90;;;;;;5038332;28;20222;-79
2023/08/21 06:30:45;;;;;;;5.88;2.85;;;19.20;99.90;;;;;;5044133;28;20228;-79
2023/08/21 06:33:11;;;;;;;6.63;2.60;;;19.50;99.90;;;;;;5043217;28;20680;-78
2023/08/21 06:35:39;;;;;;;3.75;2.58;;;19.70;99.90;;;;;;5050505;28;20577;-78
2023/08/21 06:38:06;;;;;;;5.60;2.90;;;19.80;99.90;;;;;;5039641;28;20212;-79
2023/08/21 06:40:33;;;;;;;3.72;2.45;;;19.90;99.90;;;;;;5037925;28;20646;-79
2023/08/21 06:43:00;;;;;;;9.35;3.05;;;20.00;99.90;;;;;;5046374;28;20227;-79
2023/08/21 06:45:29;;;;;;;8.20;2.75;;;20.00;99.90;;;;;;5036546;28;20204;-78
2023/08/21 06:47:58;;;;;;;5.93;3.05;;;20.00;99.90;;;;;;5041402;28;20231;-78
2023/08/21 06:50:24;;;;;;;5.25;2.92;;;20.20;99.90;;;;;;5049377;28;20306;-79
2023/08/21 06:52:51;;;;;;;7.43;3.00;;;20.40;99.90;;;;;;5042132;28;20271;-79
2023/08/21 06:55:18;;;;;;;6.63;2.80;;;20.50;99.90;;;;;;5041970;28;20202;-78
2023/08/21 06:57:45;;;;;;;5.88;3.17;;;20.60;99.90;;;;;;5055452;28;20283;-80
2023/08/21 07:00:13;;;;;;;5.90;2.97;;;20.60;99.90;;;;;;5045048;28;20306;-79
2023/08/21 07:02:39;;;;;;;5.60;2.80;;;20.60;99.90;;;;;;5055639;28;20227;-79
2023/08/21 07:05:08;;;;;;;5.72;3.05;;;20.50;99.90;;;;;;5046830;28;20206;-79
2023/08/21 07:07:35;;;;;;;5.38;2.63;;;20.50;99.90;;;;;;5048195;28;20641;-78
2023/08/21 07:10:03;;;;;;;5.32;2.72;;;20.50;99.90;;;;;;5063574;28;20310;-79
2023/08/21 07:12:30;;;;;;;5.78;2.50;;;20.60;99.90;;;;;;5059042;28;20200;-79
2023/08/21 07:14:57;;;;;;;6.95;2.90;;;21.70;99.90;;;;;;5044291;28;20303;-78
2023/08/21 07:17:24;;;;;;;5.07;2.60;;;21.50;99.90;;;;;;5044995;28;20203;-79
2023/08/21 07:19:52;;;;;;;3.85;3.13;;;21.10;99.90;;;;;;5051491;28;20293;-79
2023/08/21 07:22:20;;;;;;;8.00;3.00;;;21.10;99.90;;;;;;5062188;28;20234;-79
2023/08/21 07:24:47;;;;;;;6.70;2.53;;;21.10;99.90;;;;;;5048517;28;20227;-79
2023/08/21 07:27:14;;;;;;;5.68;2.83;;;21.20;99.90;;;;;;5056735;28;20285;-79
2023/08/21 07:29:40;;;;;;;6.07;3.35;;;21.30;99.90;;;;;;5054700;28;20229;-78
2023/08/21 07:32:07;;;;;;;4.95;2.85;;;21.30;99.90;;;;;;5060320;28;20207;-79
2023/08/21 07:34:34;;;;;;;9.73;2.55;;;21.50;99.90;;;;;;5043842;28;20192;-79
2023/08/21 07:37:01;;;;;;;4.53;2.60;;;21.50;99.90;;;;;;5049939;28;20596;-79
2023/08/21 07:39:29;;;;;;;4.50;2.50;;;21.60;99.90;;;;;;5052800;28;20227;-79
2023/08/21 07:41:55;;;;;;;2.92;2.63;;;21.50;99.90;;;;;;5059506;28;20203;-80
2023/08/21 07:44:22;;;;;;;7.82;2.97;;;21.40;99.90;;;;;;5043448;28;20587;-79
2023/08/21 07:46:49;;;;;;;9.00;2.90;;;21.50;99.90;;;;;;5061727;28;20213;-79
2023/08/21 07:49:18;;;;;;;8.40;3.03;;;21.60;99.90;;;;;;5058135;28;20229;-78
2023/08/21 07:51:45;;;;;;;4.88;2.80;;;21.70;99.90;;;;;;5058871;28;20207;-79
2023/08/21 07:54:11;;;;;;;5.97;2.17;;;21.60;99.90;;;;;;5057617;28;20203;-79
2023/08/21 07:56:40;;;;;;;6.07;2.70;;;22.00;99.90;;;;;;5056186;28;20207;-79
2023/08/21 07:59:07;;;;;;;4.60;2.60;;;22.10;99.90;;;;;;5061685;28;20281;-79
2023/08/21 08:01:34;;;;;;;4.40;2.70;;;22.20;99.90;;;;;;5061859;28;20253;-79
2023/08/21 08:04:01;;;;;;;7.85;2.58;;;22.20;99.90;;;;;;5044427;28;20216;-79
2023/08/21 08:06:28;;;;;;;4.88;2.60;;;22.40;99.90;;;;;;5049534;28;20292;-79
2023/08/21 08:08:55;;;;;;;5.90;3.13;;;22.40;99.90;;;;;;5041301;28;20227;-79
2023/08/21 08:11:22;;;;;;;7.90;2.97;;;22.60;99.90;;;;;;5042897;28;20204;-79
2023/08/21 08:13:50;;;;;;;7.30;2.65;;;22.60;99.90;;;;;;5043510;28;20204;-79
2023/08/21 08:16:17;;;;;;;6.88;2.75;;;22.70;99.90;;;;;;5036989;28;20231;-79
2023/08/21 08:18:44;;;;;;;4.78;2.53;;;22.50;99.90;;;;;;5043195;28;20219;-79
2023/08/21 08:21:11;;;;;;;7.85;3.20;;;22.60;99.90;;;;;;5044088;28;20209;-79
2023/08/21 08:23:38;;;;;;;6.43;2.70;;;22.70;99.90;;;;;;5043554;28;20223;-78
2023/08/21 08:26:05;;;;;;;6.85;3.05;;;22.70;99.90;;;;;;5043102;28;20203;-78
2023/08/21 08:28:31;;;;;;;5.03;2.75;;;22.80;99.90;;;;;;5042880;28;20211;-79
2023/08/21 08:31:00;;;;;;;11.55;3.00;;;22.80;99.90;;;;;;5043546;28;20643;-78
2023/08/21 08:33:27;;;;;;;6.40;2.60;;;22.70;99.90;;;;;;5042617;28;20215;-79
2023/08/21 08:35:53;;;;;;;7.57;2.83;;;22.90;99.90;;;;;;5042335;28;20271;-79
2023/08/21 08:38:20;;;;;;;4.50;2.90;;;22.90;99.90;;;;;;5041751;28;20207;-79
2023/08/21 08:40:48;;;;;;;6.25;3.08;;;23.10;99.90;;;;;;5041249;28;20212;-79
2023/08/21 08:43:15;;;;;;;7.20;2.58;;;23.00;99.90;;;;;;5042170;28;20229;-79
2023/08/21 08:45:43;;;;;;;2.97;2.10;;;23.00;99.90;;;;;;5042289;28;20223;-79
2023/08/21 08:48:13;;;;;;;6.45;2.50;;;23.10;99.90;;;;;;5041045;28;20282;-79
2023/08/21 08:50:41;;;;;;;6.90;2.67;;;23.10;99.90;;;;;;5042424;28;20290;-78
2023/08/21 08:53:09;;;;;;;8.07;2.80;;;23.00;99.90;;;;;;5050135;28;20206;-79
2023/08/21 08:55:36;;;;;;;8.23;2.45;;;23.20;99.90;;;;;;5042156;28;20207;-79
2023/08/21 08:58:03;;;;;;;2.88;1.70;;;23.20;99.90;;;;;;5041484;28;20207;-78
2023/08/21 09:00:30;;;;;;;5.28;2.25;;;23.10;99.90;;;;;;5039927;28;20258;-78
2023/08/21 09:02:58;;;;;;;6.90;2.20;;;23.00;99.90;;;;;;5041260;28;20214;-79
2023/08/21 09:05:26;;;;;;;5.82;2.08;;;23.30;99.90;;;;;;5041925;28;20816;-78
2023/08/21 09:08:11;;;;;;;6.80;2.10;;;23.40;99.90;;;;;;5040956;28;20609;-78
2023/08/21 09:10:39;;;;;;;5.10;1.70;;;23.50;99.90;;;;;;5034863;28;20287;-78
2023/08/21 09:13:11;;;;;;;4.93;2.40;;;23.60;99.90;;;;;;5042224;28;20235;-78
2023/08/21 09:15:38;;;;;;;4.65;1.65;;;23.80;99.90;;;;;;5041811;28;20206;-79
2023/08/21 09:18:09;;;;;;;4.78;2.00;;;23.90;99.90;;;;;;5041181;28;20272;-79
2023/08/21 09:20:38;;;;;;;5.13;2.38;;;24.10;99.90;;;;;;5041393;28;20226;-78
2023/08/21 09:23:04;;;;;;;4.75;1.60;;;24.00;99.90;;;;;;5042040;28;20552;-78
2023/08/21 09:25:36;;;;;;;5.18;1.73;;;24.30;99.90;;;;;;5048171;28;20210;-79
2023/08/21 09:28:06;;;;;;;7.82;2.13;;;24.70;99.90;;;;;;5041819;28;20211;-79
2023/08/21 09:30:45;;;;;;;6.50;2.03;;;25.50;99.90;;;;;;5041117;28;20219;-79
2023/08/21 09:33:13;;;;;;;4.10;1.65;;;25.50;99.90;;;;;;5041136;28;20631;-79
2023/08/21 09:35:43;;;;;;;5.82;1.90;;;25.40;99.90;;;;;;5040534;28;20210;-79
2023/08/21 09:38:10;;;;;;;12.23;2.15;;;25.10;99.90;;;;;;5041838;28;20208;-78
2023/08/21 09:40:41;;;;;;;4.10;1.90;;;25.50;99.90;;;;;;5039955;28;20226;-79
2023/08/21 09:43:10;;;;;;;4.00;1.55;;;25.10;99.90;;;;;;5037832;28;20216;-79
2023/08/21 09:45:36;;;;;;;5.05;1.92;;;25.50;99.90;;;;;;5042408;28;20207;-79
2023/08/21 09:48:05;;;;;;;3.20;1.85;;;26.50;99.90;;;;;;5042162;28;20257;-79
2023/08/21 09:50:32;;;;;;;5.43;2.13;;;26.60;99.90;;;;;;5041331;28;20286;-79
2023/08/21 09:53:00;;;;;;;5.20;1.90;;;26.70;99.90;;;;;;5042162;28;20235;-79
2023/08/21 09:55:29;;;;;;;4.85;1.83;;;26.10;99.90;;;;;;5032982;28;20210;-79
2023/08/21 09:57:59;;;;;;;4.70;2.00;;;26.00;99.90;;;;;;5041121;28;20661;-79
2023/08/21 10:00:29;;;;;;;6.03;2.17;;;26.40;99.90;;;;;;5032989;28;20223;-79
2023/08/21 10:03:02;;;;;;;4.85;1.70;;;26.00;99.90;;;;;;5040962;28;20204;-80
2023/08/21 10:05:29;;;;;;;3.50;1.80;;;26.60;99.90;;;;;;5033418;28;20715;-79
2023/08/21 10:07:57;;;;;;;4.28;1.60;;;26.80;99.90;;;;;;5040663;28;20211;-79
2023/08/21 10:10:25;;;;;;;3.97;2.20;;;26.30;99.90;;;;;;5040160;28;20852;-79
2023/08/21 10:12:52;;;;;;;4.95;1.77;;;26.20;99.90;;;;;;5041759;28;20204;-79
2023/08/21 10:15:19;;;;;;;4.35;1.63;;;26.40;99.90;;;;;;5040502;28;20204;-80
2023/08/21 10:17:46;;;;;;;3.83;1.75;;;26.70;99.90;;;;;;5038714;28;20203;-79
2023/08/21 10:20:13;;;;;;;5.53;2.00;;;26.70;99.90;;;;;;5038201;28;20311;-79
2023/08/21 10:22:43;;;;;;;3.17;2.00;;;26.90;99.90;;;;;;5039106;28;20231;-79
2023/08/21 10:25:17;;;;;;;5.20;1.95;;;26.30;99.90;;;;;;5040474;28;20308;-79
2023/08/21 10:27:47;;;;;;;5.72;2.35;;;26.60;99.90;;;;;;5039626;28;20204;-79
2023/08/21 10:30:16;;;;;;;3.80;1.95;;;26.30;99.90;;;;;;5041236;28;20225;-79
2023/08/21 10:32:47;;;;;;;6.40;2.25;;;25.70;99.90;;;;;;5044284;28;20226;-78
2023/08/21 10:35:16;;;;;;;4.28;2.10;;;25.50;99.90;;;;;;5043751;28;20242;-78
2023/08/21 10:38:17;;;;;;;5.22;2.17;;;25.90;99.90;;;;;;5044870;28;20204;-79
2023/08/21 10:41:06;;;;;;;2.47;1.30;;;26.20;99.90;;;;;;4982207;28;20221;-79
2023/08/21 10:43:41;;;;;;;5.40;1.70;;;25.90;99.90;;;;;;4982266;28;20584;-79
2023/08/21 10:46:08;;;;;;;5.00;2.08;;;25.50;99.90;;;;;;5022410;28;20206;-79
2023/08/21 10:48:35;;;;;;;4.85;1.90;;;25.40;99.90;;;;;;5043523;28;20661;-79
2023/08/21 10:51:04;;;;;;;5.35;1.85;;;26.60;99.90;;;;;;5043473;28;20200;-78
2023/08/21 10:53:32;;;;;;;5.60;2.13;;;26.70;99.90;;;;;;5044746;28;20712;-79
2023/08/21 10:56:02;;;;;;;5.68;2.50;;;26.60;99.90;;;;;;5044819;28;20203;-79
2023/08/21 10:58:29;;;;;;;4.65;1.70;;;27.10;99.90;;;;;;5043614;28;20200;-79
2023/08/21 11:01:00;;;;;;;4.57;2.22;;;27.30;99.90;;;;;;5043851;28;20203;-80
2023/08/21 11:03:27;;;;;;;3.72;1.95;;;27.50;99.90;;;;;;5043395;28;20716;-79
2023/08/21 11:06:05;;;;;;;5.22;2.10;;;26.90;99.90;;;;;;5044052;28;20227;-79
2023/08/21 11:08:33;;;;;;;4.15;2.30;;;26.30;99.90;;;;;;5034573;28;20210;-79
2023/08/21 11:11:00;;;;;;;5.50;2.00;;;26.40;99.90;;;;;;5041816;28;20215;-79
2023/08/21 11:13:27;;;;;;;4.43;2.30;;;26.90;99.90;;;;;;5045003;28;20207;-80
2023/08/21 11:16:02;;;;;;;3.78;2.03;;;26.90;99.90;;;;;;5043417;28;20203;-79
2023/08/21 11:18:33;;;;;;;3.88;1.98;;;26.90;99.90;;;;;;5042410;28;20199;-79
2023/08/21 11:21:08;;;;;;;4.10;1.88;;;27.20;99.90;;;;;;5043707;28;20590;-79
2023/08/21 11:23:36;;;;;;;7.22;1.92;;;27.40;99.90;;;;;;5043168;28;20572;-79
2023/08/21 11:26:04;;;;;;;4.50;2.00;;;27.50;99.90;;;;;;5042240;28;20220;-79
2023/08/21 11:28:32;;;;;;;4.53;2.45;;;28.40;99.90;;;;;;5038514;28;20214;-79
2023/08/21 11:30:59;;;;;;;5.55;2.50;;;28.10;99.90;;;;;;5039100;28;20768;-78
2023/08/21 11:33:28;;;;;;;4.75;2.15;;;26.80;99.90;;;;;;5037207;28;20588;-79
2023/08/21 11:35:57;;;;;;;5.88;1.70;;;26.20;99.90;;;;;;5037937;28;20216;-79
2023/08/21 11:38:25;;;;;;;5.45;2.22;;;26.90;99.90;;;;;;5038306;28;20207;-78
2023/08/21 11:40:54;;;;;;;4.60;1.58;;;27.00;99.90;;;;;;5041297;28;20211;-79
2023/08/21 11:43:21;;;;;;;3.15;2.00;;;26.60;99.90;;;;;;5038933;28;20271;-79
2023/08/21 11:45:48;;;;;;;6.78;2.22;;;27.20;99.90;;;;;;5039213;28;20227;-80
2023/08/21 11:48:15;;;;;;;7.32;1.85;;;27.60;99.90;;;;;;5047490;28;20207;-79
2023/08/21 11:50:43;;;;;;;5.22;1.83;;;27.20;99.90;;;;;;5053532;28;20226;-80
2023/08/21 11:53:11;;;;;;;3.63;1.70;;;27.20;99.90;;;;;;5054715;28;20676;-79
2023/08/21 11:55:39;;;;;;;6.35;2.58;;;27.30;99.90;;;;;;5051936;28;20199;-80
2023/08/21 11:58:06;;;;;;;5.05;1.98;;;27.60;99.90;;;;;;5043776;28;20736;-80
2023/08/21 12:00:33;;;;;;;4.57;1.80;;;28.20;99.90;;;;;;5040321;28;20223;-79
2023/08/21 12:03:02;;;;;;;6.43;1.77;;;28.90;99.90;;;;;;5034876;28;20211;-79
2023/08/21 12:05:30;;;;;;;6.25;1.75;;;27.90;99.90;;;;;;5043295;28;20250;-80
2023/08/21 12:07:59;;;;;;;4.25;1.90;;;27.40;99.90;;;;;;5044363;28;20558;-80
2023/08/21 12:10:26;;;;;;;4.28;2.13;;;27.50;99.90;;;;;;5042060;28;20219;-80
2023/08/21 12:12:53;;;;;;;5.55;1.80;;;27.80;99.90;;;;;;5041014;28;20216;-80
2023/08/21 12:15:20;;;;;;;7.05;2.10;;;28.30;99.90;;;;;;5043360;28;20647;-79
2023/08/21 12:17:47;;;;;;;4.38;1.73;;;28.20;99.90;;;;;;5060821;28;20573;-79
2023/08/21 12:20:14;;;;;;;3.60;1.75;;;28.20;99.90;;;;;;5042658;28;20219;-80
2023/08/21 12:22:42;;;;;;;6.35;1.90;;;27.40;99.90;;;;;;5053276;28;20229;-80
2023/08/21 12:25:11;;;;;;;3.78;1.95;;;27.40;99.90;;;;;;5053565;28;20219;-79
2023/08/21 12:27:38;;;;;;;3.90;1.80;;;27.50;99.90;;;;;;5040380;28;20204;-81
2023/08/21 12:30:05;;;;;;;4.32;1.65;;;27.20;99.90;;;;;;5048450;28;20314;-80
2023/08/21 12:32:32;;;;;;;5.45;2.00;;;27.20;99.90;;;;;;5046416;28;20657;-79
2023/08/21 12:34:59;;;;;;;5.15;2.00;;;26.80;99.90;;;;;;5048460;28;20199;-79
2023/08/21 12:37:26;;;;;;;5.03;1.75;;;26.90;99.90;;;;;;5061646;28;20226;-79
2023/08/21 12:39:54;;;;;;;3.80;1.92;;;26.60;99.90;;;;;;5043348;28;20250;-79
2023/08/21 12:42:23;;;;;;;3.20;1.80;;;27.20;99.90;;;;;;5040475;28;20214;-82
2023/08/21 12:44:49;;;;;;;5.47;2.03;;;27.40;99.90;;;;;;5044905;28;20250;-79
2023/08/21 12:47:16;;;;;;;2.45;1.52;;;27.60;99.90;;;;;;5044889;28;20223;-79
2023/08/21 12:49:43;;;;;;;7.43;1.85;;;26.50;99.90;;;;;;5048865;28;20228;-79